createdAt,value
2018-08-17T00:00:50.623Z,0.00
2018-08-17T00:01:50.718Z,0.00
2018-08-17T00:02:50.820Z,0.00
2018-08-17T00:03:50.918Z,0.00
2018-08-17T00:04:51.011Z,0.00
2018-08-17T00:05:51.108Z,0.00
2018-08-17T00:06:51.210Z,0.00
2018-08-17T00:07:51.305Z,0.00
2018-08-17T00:08:51.402Z,0.00
2018-08-17T00:09:51.496Z,0.00
2018-08-17T00:10:51.594Z,0.00
2018-08-17T00:11:51.692Z,0.00
2018-08-17T00:12:51.792Z,0.00
2018-08-17T00:13:51.890Z,0.00
2018-08-17T00:14:51.988Z,0.00
2018-08-17T00:15:52.084Z,0.00
2018-08-17T00:16:52.182Z,0.00
2018-08-17T00:17:52.279Z,0.00
2018-08-17T00:18:52.375Z,0.00
2018-08-17T00:19:52.474Z,0.00
2018-08-17T00:20:52.570Z,0.00
2018-08-17T00:21:52.670Z,0.00
2018-08-17T00:22:52.766Z,0.00
2018-08-17T00:23:52.863Z,0.00
2018-08-17T00:24:52.964Z,0.00
2018-08-17T00:25:53.059Z,0.00
2018-08-17T00:26:53.158Z,0.00
2018-08-17T00:27:53.252Z,0.00
2018-08-17T00:28:53.344Z,0.00
2018-08-17T00:29:53.443Z,0.00
2018-08-17T00:30:53.539Z,0.00
2018-08-17T00:31:53.636Z,0.00
2018-08-17T00:32:53.732Z,0.00
2018-08-17T00:33:53.830Z,0.00
2018-08-17T00:34:53.928Z,0.00
2018-08-17T00:35:54.025Z,0.00
2018-08-17T00:36:54.120Z,0.00
2018-08-17T00:37:54.217Z,0.00
2018-08-17T00:38:54.316Z,0.00
2018-08-17T00:39:54.413Z,0.00
2018-08-17T00:40:54.520Z,0.00
2018-08-17T00:41:54.611Z,0.00
2018-08-17T00:42:54.710Z,0.00
2018-08-17T00:43:54.805Z,0.00
2018-08-17T00:44:54.902Z,0.00
2018-08-17T00:45:54.999Z,0.00
2018-08-17T00:46:55.098Z,0.00
2018-08-17T00:47:55.199Z,0.00
2018-08-17T00:48:55.291Z,0.00
2018-08-17T00:49:55.388Z,0.00
2018-08-17T00:50:55.485Z,0.00
2018-08-17T00:51:55.580Z,0.00
2018-08-17T00:52:55.679Z,0.00
2018-08-17T00:53:55.782Z,0.00
2018-08-17T00:54:55.881Z,0.00
2018-08-17T00:55:55.979Z,0.00
2018-08-17T00:56:56.077Z,0.00
2018-08-17T00:57:56.173Z,0.00
2018-08-17T00:58:56.271Z,0.00
2018-08-17T00:59:56.367Z,0.00
2018-08-17T01:00:56.464Z,0.00
2018-08-17T01:01:56.567Z,0.00
2018-08-17T01:02:56.661Z,0.00
2018-08-17T01:03:56.759Z,0.00
2018-08-17T01:04:56.858Z,0.00
2018-08-17T01:05:56.954Z,0.00
2018-08-17T01:06:57.050Z,0.00
2018-08-17T01:07:57.143Z,0.00
2018-08-17T01:08:57.248Z,0.00
2018-08-17T01:09:57.346Z,0.00
2018-08-17T01:10:57.443Z,0.00
2018-08-17T01:11:57.540Z,0.00
2018-08-17T01:12:57.638Z,0.00
2018-08-17T01:13:57.736Z,0.00
2018-08-17T01:14:57.832Z,0.00
2018-08-17T01:15:57.926Z,0.00
2018-08-17T01:16:58.023Z,0.00
2018-08-17T01:17:58.123Z,0.00
2018-08-17T01:18:58.219Z,0.00
2018-08-17T01:19:58.312Z,0.00
2018-08-17T01:20:58.431Z,0.00
2018-08-17T01:21:58.526Z,0.00
2018-08-17T01:22:58.623Z,0.00
2018-08-17T01:23:58.719Z,0.00
2018-08-17T01:24:58.814Z,0.00
2018-08-17T01:25:58.914Z,0.00
2018-08-17T01:26:59.008Z,0.00
2018-08-17T01:27:59.108Z,0.00
2018-08-17T01:28:59.203Z,0.00
2018-08-17T01:29:59.299Z,0.00
2018-08-17T01:30:59.392Z,0.00
2018-08-17T01:31:59.489Z,0.00
2018-08-17T01:32:59.585Z,0.00
2018-08-17T01:33:59.681Z,0.00
2018-08-17T01:34:59.775Z,0.00
2018-08-17T01:35:59.875Z,0.00
2018-08-17T01:36:59.975Z,0.00
2018-08-17T01:38:00.068Z,0.00
2018-08-17T01:39:00.164Z,0.00
2018-08-17T01:40:00.260Z,0.00
2018-08-17T01:41:00.364Z,0.00
2018-08-17T01:42:00.460Z,0.00
2018-08-17T01:43:00.558Z,0.00
2018-08-17T01:44:00.655Z,0.00
2018-08-17T01:45:00.750Z,0.00
2018-08-17T01:46:00.846Z,0.00
2018-08-17T01:47:00.948Z,0.00
2018-08-17T01:48:01.042Z,0.00
2018-08-17T01:49:01.136Z,0.00
2018-08-17T01:50:01.232Z,0.00
2018-08-17T01:51:01.327Z,0.00
2018-08-17T01:52:01.424Z,0.00
2018-08-17T01:53:01.521Z,0.00
2018-08-17T01:54:01.617Z,0.00
2018-08-17T01:55:01.714Z,0.00
2018-08-17T01:56:01.815Z,0.00
2018-08-17T01:57:01.903Z,0.00
2018-08-17T01:58:02.003Z,0.00
2018-08-17T01:59:02.099Z,0.00
2018-08-17T02:00:02.195Z,0.00
2018-08-17T02:01:02.299Z,0.00
2018-08-17T02:02:02.393Z,0.00
2018-08-17T02:03:02.488Z,0.00
2018-08-17T02:04:02.584Z,0.00
2018-08-17T02:05:02.680Z,0.00
2018-08-17T02:06:02.778Z,0.00
2018-08-17T02:07:02.874Z,0.00
2018-08-17T02:08:02.971Z,0.00
2018-08-17T02:09:03.068Z,0.00
2018-08-17T02:10:03.167Z,0.00
2018-08-17T02:11:03.261Z,0.00
2018-08-17T02:12:03.357Z,0.00
2018-08-17T02:13:03.452Z,0.00
2018-08-17T02:14:03.551Z,0.00
2018-08-17T02:15:03.643Z,0.00
2018-08-17T02:16:03.738Z,0.00
2018-08-17T02:17:03.834Z,0.00
2018-08-17T02:18:03.929Z,0.00
2018-08-17T02:19:04.030Z,0.00
2018-08-17T02:20:04.121Z,0.00
2018-08-17T02:21:04.225Z,0.00
2018-08-17T02:22:04.317Z,0.00
2018-08-17T02:23:04.412Z,0.00
2018-08-17T02:24:04.508Z,0.00
2018-08-17T02:25:04.604Z,0.00
2018-08-17T02:26:04.704Z,0.00
2018-08-17T02:27:04.803Z,0.00
2018-08-17T02:28:04.901Z,0.00
2018-08-17T02:29:05.002Z,0.00
2018-08-17T02:30:05.109Z,0.00
2018-08-17T02:31:05.202Z,0.00
2018-08-17T02:32:05.300Z,0.00
2018-08-17T02:33:05.395Z,0.00
2018-08-17T02:34:05.484Z,0.00
2018-08-17T02:35:05.575Z,0.00
2018-08-17T02:36:05.666Z,0.00
2018-08-17T02:37:05.759Z,0.00
2018-08-17T02:38:05.854Z,0.00
2018-08-17T02:39:05.953Z,0.00
2018-08-17T02:40:06.045Z,0.00
2018-08-17T02:41:06.131Z,0.00
2018-08-17T02:42:06.228Z,0.00
2018-08-17T02:43:06.320Z,0.00
2018-08-17T02:44:06.426Z,0.00
2018-08-17T02:45:06.511Z,0.00
2018-08-17T02:46:06.593Z,0.00
2018-08-17T02:47:06.699Z,0.00
2018-08-17T02:48:06.797Z,0.00
2018-08-17T02:49:06.898Z,0.00
2018-08-17T02:50:06.987Z,0.00
2018-08-17T02:51:07.079Z,0.00
2018-08-17T02:52:07.160Z,0.00
2018-08-17T02:53:07.247Z,0.00
2018-08-17T02:54:07.340Z,0.00
2018-08-17T02:55:07.444Z,0.00
2018-08-17T02:56:07.535Z,0.00
2018-08-17T02:57:07.631Z,0.00
2018-08-17T02:58:07.731Z,0.00
2018-08-17T02:59:07.839Z,0.00
2018-08-17T03:00:07.931Z,0.00
2018-08-17T03:01:08.039Z,0.00
2018-08-17T03:02:08.145Z,0.00
2018-08-17T03:03:08.236Z,0.00
2018-08-17T03:04:08.331Z,0.00
2018-08-17T03:05:08.438Z,0.00
2018-08-17T03:06:08.538Z,0.00
2018-08-17T03:07:08.629Z,0.00
2018-08-17T03:08:08.721Z,0.00
2018-08-17T03:09:08.815Z,0.00
2018-08-17T03:10:08.900Z,0.00
2018-08-17T03:11:09.006Z,0.00
2018-08-17T03:12:09.099Z,0.00
2018-08-17T03:13:09.205Z,0.00
2018-08-17T03:14:09.294Z,0.00
2018-08-17T03:15:09.394Z,0.00
2018-08-17T03:16:09.491Z,0.00
2018-08-17T03:17:09.584Z,0.00
2018-08-17T03:18:09.677Z,0.00
2018-08-17T03:19:09.773Z,0.00
2018-08-17T03:20:09.870Z,0.00
2018-08-17T03:21:09.965Z,0.00
2018-08-17T03:22:10.064Z,0.00
2018-08-17T03:23:10.158Z,0.00
2018-08-17T03:24:10.267Z,0.00
2018-08-17T03:25:10.352Z,0.00
2018-08-17T03:26:10.446Z,0.00
2018-08-17T03:27:10.551Z,0.00
2018-08-17T03:28:10.648Z,0.00
2018-08-17T03:29:10.744Z,0.00
2018-08-17T03:30:10.833Z,0.00
2018-08-17T03:31:10.923Z,0.00
2018-08-17T03:32:11.010Z,0.00
2018-08-17T03:33:11.104Z,0.00
2018-08-17T03:34:11.202Z,0.00
2018-08-17T03:35:11.304Z,0.00
2018-08-17T03:36:11.402Z,0.00
2018-08-17T03:37:11.514Z,0.00
2018-08-17T03:38:11.705Z,0.00
2018-08-17T03:39:11.686Z,0.00
2018-08-17T03:40:11.786Z,0.00
2018-08-17T03:41:11.876Z,0.00
2018-08-17T03:42:11.975Z,0.00
2018-08-17T03:43:12.074Z,0.00
2018-08-17T03:44:12.174Z,0.00
2018-08-17T03:45:12.274Z,0.00
2018-08-17T03:46:12.359Z,0.00
2018-08-17T03:47:12.461Z,0.00
2018-08-17T03:48:12.564Z,0.00
2018-08-17T03:49:12.666Z,0.00
2018-08-17T03:50:12.757Z,0.00
2018-08-17T03:51:12.855Z,0.00
2018-08-17T03:52:12.951Z,0.00
2018-08-17T03:53:13.051Z,0.00
2018-08-17T03:54:13.148Z,0.00
2018-08-17T03:55:13.241Z,0.00
2018-08-17T03:56:13.347Z,0.00
2018-08-17T03:57:13.445Z,0.00
2018-08-17T03:58:13.543Z,0.00
2018-08-17T03:59:13.636Z,0.00
2018-08-17T04:00:13.730Z,0.00
2018-08-17T04:01:13.825Z,0.00
2018-08-17T04:02:13.927Z,5.63
2018-08-17T04:03:14.023Z,5.63
2018-08-17T04:04:14.124Z,5.63
2018-08-17T04:05:14.216Z,5.63
2018-08-17T04:06:14.309Z,11.25
2018-08-17T04:07:14.417Z,11.25
2018-08-17T04:08:14.510Z,11.25
2018-08-17T04:09:14.608Z,11.25
2018-08-17T04:10:14.706Z,11.25
2018-08-17T04:11:14.802Z,11.25
2018-08-17T04:12:14.900Z,11.25
2018-08-17T04:13:15.010Z,11.25
2018-08-17T04:14:15.108Z,11.25
2018-08-17T04:15:15.204Z,16.88
2018-08-17T04:16:15.302Z,16.88
2018-08-17T04:17:15.396Z,16.88
2018-08-17T04:18:15.495Z,22.50
2018-08-17T04:19:15.596Z,22.50
2018-08-17T04:20:15.689Z,22.50
2018-08-17T04:21:15.789Z,22.50
2018-08-17T04:22:15.884Z,28.13
2018-08-17T04:23:15.985Z,28.13
2018-08-17T04:24:16.080Z,28.13
2018-08-17T04:25:16.176Z,33.75
2018-08-17T04:26:16.272Z,33.75
2018-08-17T04:27:16.370Z,33.75
2018-08-17T04:28:16.467Z,39.38
2018-08-17T04:29:16.563Z,39.38
2018-08-17T04:30:16.662Z,45.00
2018-08-17T04:31:16.757Z,45.00
2018-08-17T04:32:16.856Z,50.63
2018-08-17T04:33:16.961Z,50.63
2018-08-17T04:34:17.068Z,56.25
2018-08-17T04:35:17.187Z,61.88
2018-08-17T04:36:17.261Z,61.88
2018-08-17T04:37:17.359Z,61.88
2018-08-17T04:38:17.467Z,67.50
2018-08-17T04:39:17.554Z,67.50
2018-08-17T04:40:17.652Z,73.13
2018-08-17T04:41:17.750Z,78.75
2018-08-17T04:42:17.844Z,84.38
2018-08-17T04:43:17.942Z,84.38
2018-08-17T04:44:18.039Z,84.38
2018-08-17T04:45:18.139Z,84.38
2018-08-17T04:46:18.239Z,95.63
2018-08-17T04:47:18.333Z,95.63
2018-08-17T04:48:18.439Z,101.25
2018-08-17T04:49:18.605Z,101.25
2018-08-17T04:50:18.635Z,106.88
2018-08-17T04:51:18.734Z,106.88
2018-08-17T04:52:18.830Z,112.50
2018-08-17T04:53:18.923Z,112.50
2018-08-17T04:54:19.023Z,123.75
2018-08-17T04:55:19.120Z,129.38
2018-08-17T04:56:19.217Z,129.38
2018-08-17T04:57:19.311Z,135.00
2018-08-17T04:58:19.411Z,140.63
2018-08-17T04:59:19.508Z,140.63
2018-08-17T05:00:19.606Z,140.63
2018-08-17T05:01:19.713Z,140.63
2018-08-17T05:02:19.814Z,135.00
2018-08-17T05:03:19.915Z,123.75
2018-08-17T05:04:20.006Z,123.75
2018-08-17T05:05:20.104Z,129.38
2018-08-17T05:06:20.202Z,123.75
2018-08-17T05:07:20.299Z,123.75
2018-08-17T05:08:20.396Z,129.38
2018-08-17T05:09:20.495Z,129.38
2018-08-17T05:10:20.590Z,123.75
2018-08-17T05:11:20.689Z,123.75
2018-08-17T05:12:20.785Z,123.75
2018-08-17T05:13:20.882Z,118.13
2018-08-17T05:14:20.980Z,112.50
2018-08-17T05:15:21.077Z,112.50
2018-08-17T05:16:21.172Z,106.88
2018-08-17T05:17:21.288Z,112.50
2018-08-17T05:18:21.369Z,118.13
2018-08-17T05:19:21.468Z,118.13
2018-08-17T05:20:21.568Z,123.75
2018-08-17T05:21:21.671Z,129.38
2018-08-17T05:22:21.767Z,135.00
2018-08-17T05:23:21.871Z,135.00
2018-08-17T05:24:21.959Z,140.63
2018-08-17T05:25:22.057Z,140.63
2018-08-17T05:26:22.156Z,140.63
2018-08-17T05:27:22.251Z,135.00
2018-08-17T05:28:22.362Z,140.63
2018-08-17T05:29:22.460Z,140.63
2018-08-17T05:30:22.560Z,146.25
2018-08-17T05:31:22.663Z,151.88
2018-08-17T05:32:22.765Z,157.50
2018-08-17T05:33:22.858Z,151.88
2018-08-17T05:34:22.957Z,157.50
2018-08-17T05:35:23.089Z,157.50
2018-08-17T05:36:23.178Z,157.50
2018-08-17T05:37:23.274Z,163.13
2018-08-17T05:38:23.373Z,174.38
2018-08-17T05:39:23.471Z,174.38
2018-08-17T05:40:23.573Z,174.38
2018-08-17T05:41:23.667Z,180.00
2018-08-17T05:42:23.766Z,185.63
2018-08-17T05:43:23.862Z,185.63
2018-08-17T05:44:23.958Z,191.25
2018-08-17T05:45:24.057Z,202.50
2018-08-17T05:46:24.175Z,213.75
2018-08-17T05:47:24.270Z,208.13
2018-08-17T05:48:24.373Z,208.13
2018-08-17T05:49:24.476Z,225.00
2018-08-17T05:50:24.569Z,225.00
2018-08-17T05:51:24.668Z,230.63
2018-08-17T05:52:24.767Z,241.88
2018-08-17T05:53:24.864Z,236.25
2018-08-17T05:54:24.965Z,241.88
2018-08-17T05:55:25.064Z,230.63
2018-08-17T05:56:25.160Z,225.00
2018-08-17T05:57:25.264Z,230.63
2018-08-17T05:58:25.363Z,236.25
2018-08-17T05:59:25.463Z,253.13
2018-08-17T06:00:25.558Z,270.00
2018-08-17T06:01:25.656Z,270.00
2018-08-17T06:02:25.758Z,264.38
2018-08-17T06:03:25.855Z,264.38
2018-08-17T06:04:25.950Z,275.63
2018-08-17T06:05:26.050Z,286.88
2018-08-17T06:06:26.146Z,281.25
2018-08-17T06:07:26.248Z,303.75
2018-08-17T06:08:26.348Z,388.13
2018-08-17T06:09:26.440Z,590.63
2018-08-17T06:10:26.537Z,759.38
2018-08-17T06:11:26.700Z,945.00
2018-08-17T06:12:26.733Z,1316.25
2018-08-17T06:13:26.831Z,1299.38
2018-08-17T06:14:26.932Z,1254.38
2018-08-17T06:15:27.029Z,1254.38
2018-08-17T06:16:27.145Z,1074.38
2018-08-17T06:17:27.245Z,838.13
2018-08-17T06:18:27.345Z,1299.38
2018-08-17T06:19:27.444Z,1378.13
2018-08-17T06:20:27.541Z,1288.13
2018-08-17T06:21:27.642Z,691.88
2018-08-17T06:22:27.749Z,1276.88
2018-08-17T06:23:27.846Z,658.13
2018-08-17T06:24:27.947Z,1237.50
2018-08-17T06:25:28.052Z,1468.13
2018-08-17T06:26:28.153Z,1423.13
2018-08-17T06:27:28.265Z,1378.13
2018-08-17T06:28:28.351Z,1063.13
2018-08-17T06:29:28.458Z,579.38
2018-08-17T06:30:28.570Z,1327.50
2018-08-17T06:31:28.672Z,1333.13
2018-08-17T06:32:28.770Z,1130.63
2018-08-17T06:33:28.879Z,1198.13
2018-08-17T06:34:29.092Z,450.00
2018-08-17T06:35:29.088Z,646.88
2018-08-17T06:36:29.197Z,1406.25
2018-08-17T06:37:29.300Z,1473.75
2018-08-17T06:38:29.398Z,1507.50
2018-08-17T06:39:29.495Z,1366.88
2018-08-17T06:40:29.604Z,1513.13
2018-08-17T06:41:29.706Z,1603.13
2018-08-17T06:42:29.807Z,1580.63
2018-08-17T06:43:29.910Z,1490.63
2018-08-17T06:44:29.996Z,1440.00
2018-08-17T06:45:30.100Z,1226.25
2018-08-17T06:46:30.204Z,1338.75
2018-08-17T06:47:30.324Z,1327.50
2018-08-17T06:48:30.423Z,1321.88
2018-08-17T06:49:30.528Z,1310.63
2018-08-17T06:50:30.671Z,1338.75
2018-08-17T06:51:30.734Z,1243.13
2018-08-17T06:52:30.834Z,1316.25
2018-08-17T06:53:30.945Z,1327.50
2018-08-17T06:54:31.031Z,1361.25
2018-08-17T06:55:32.054Z,1327.50
2018-08-17T06:56:31.282Z,1237.50
2018-08-17T06:57:31.381Z,1226.25
2018-08-17T06:58:31.487Z,1254.38
2018-08-17T06:59:31.597Z,1063.13
2018-08-17T07:00:31.698Z,787.50
2018-08-17T07:01:31.793Z,523.13
2018-08-17T07:02:31.905Z,421.88
2018-08-17T07:03:31.997Z,410.63
2018-08-17T07:04:32.100Z,410.63
2018-08-17T07:05:32.192Z,399.38
2018-08-17T07:06:32.322Z,393.75
2018-08-17T07:07:32.420Z,399.38
2018-08-17T07:08:32.532Z,388.13
2018-08-17T07:09:32.660Z,388.13
2018-08-17T07:10:32.734Z,399.38
2018-08-17T07:11:32.853Z,376.88
2018-08-17T07:12:32.956Z,410.63
2018-08-17T07:13:33.064Z,416.25
2018-08-17T07:14:33.165Z,421.88
2018-08-17T07:15:33.271Z,421.88
2018-08-17T07:16:33.441Z,416.25
2018-08-17T07:17:33.498Z,365.63
2018-08-17T07:18:33.622Z,337.50
2018-08-17T07:19:33.730Z,360.00
2018-08-17T07:20:33.835Z,337.50
2018-08-17T07:21:33.984Z,326.25
2018-08-17T07:22:34.056Z,326.25
2018-08-17T07:23:34.172Z,382.50
2018-08-17T07:24:34.275Z,427.50
2018-08-17T07:25:34.383Z,427.50
2018-08-17T07:26:34.490Z,410.63
2018-08-17T07:27:34.614Z,365.63
2018-08-17T07:28:34.772Z,337.50
2018-08-17T07:29:34.805Z,343.13
2018-08-17T07:30:34.915Z,337.50
2018-08-17T07:31:35.018Z,360.00
2018-08-17T07:32:35.120Z,343.13
2018-08-17T07:33:35.223Z,405.00
2018-08-17T07:34:35.324Z,376.88
2018-08-17T07:35:35.428Z,376.88
2018-08-17T07:36:35.550Z,348.75
2018-08-17T07:37:35.663Z,343.13
2018-08-17T07:38:35.768Z,365.63
2018-08-17T07:39:35.906Z,343.13
2018-08-17T07:40:36.008Z,343.13
2018-08-17T07:41:36.154Z,343.13
2018-08-17T07:42:36.244Z,371.25
2018-08-17T07:43:36.334Z,371.25
2018-08-17T07:44:36.438Z,331.88
2018-08-17T07:45:36.543Z,337.50
2018-08-17T07:46:36.645Z,410.63
2018-08-17T07:47:36.751Z,416.25
2018-08-17T07:48:36.858Z,427.50
2018-08-17T07:49:36.957Z,376.88
2018-08-17T07:50:37.073Z,376.88
2018-08-17T07:51:37.171Z,399.38
2018-08-17T07:52:37.269Z,393.75
2018-08-17T07:53:37.370Z,495.00
2018-08-17T07:54:37.473Z,399.38
2018-08-17T07:55:37.577Z,393.75
2018-08-17T07:56:37.680Z,483.75
2018-08-17T07:57:37.785Z,500.63
2018-08-17T07:58:37.886Z,495.00
2018-08-17T07:59:37.991Z,483.75
2018-08-17T08:00:38.096Z,455.63
2018-08-17T08:01:38.209Z,365.63
2018-08-17T08:02:38.313Z,348.75
2018-08-17T08:03:38.422Z,399.38
2018-08-17T08:04:38.541Z,326.25
2018-08-17T08:05:38.644Z,320.63
2018-08-17T08:06:38.748Z,320.63
2018-08-17T08:07:38.849Z,348.75
2018-08-17T08:08:38.942Z,326.25
2018-08-17T08:09:39.052Z,365.63
2018-08-17T08:10:39.159Z,371.25
2018-08-17T08:11:39.263Z,388.13
2018-08-17T08:12:39.362Z,393.75
2018-08-17T08:13:39.535Z,337.50
2018-08-17T08:14:39.601Z,343.13
2018-08-17T08:15:39.703Z,399.38
2018-08-17T08:16:39.789Z,343.13
2018-08-17T08:17:39.887Z,371.25
2018-08-17T08:18:39.987Z,427.50
2018-08-17T08:19:40.093Z,410.63
2018-08-17T08:20:40.186Z,427.50
2018-08-17T08:21:40.291Z,388.13
2018-08-17T08:22:40.392Z,399.38
2018-08-17T08:23:40.500Z,354.38
2018-08-17T08:24:40.603Z,382.50
2018-08-17T08:25:40.709Z,421.88
2018-08-17T08:26:40.811Z,433.13
2018-08-17T08:27:40.903Z,393.75
2018-08-17T08:28:41.007Z,399.38
2018-08-17T08:29:41.111Z,410.63
2018-08-17T08:30:41.211Z,433.13
2018-08-17T08:31:41.306Z,438.75
2018-08-17T08:32:41.419Z,540.00
2018-08-17T08:33:41.519Z,472.50
2018-08-17T08:34:41.637Z,472.50
2018-08-17T08:35:41.751Z,478.13
2018-08-17T08:36:41.854Z,489.38
2018-08-17T08:37:41.963Z,528.75
2018-08-17T08:38:42.051Z,495.00
2018-08-17T08:39:42.193Z,438.75
2018-08-17T08:40:42.250Z,427.50
2018-08-17T08:41:42.450Z,427.50
2018-08-17T08:42:42.428Z,433.13
2018-08-17T08:43:42.530Z,461.25
2018-08-17T08:44:42.633Z,506.25
2018-08-17T08:45:43.565Z,551.25
2018-08-17T08:46:42.874Z,517.50
2018-08-17T08:47:42.977Z,528.75
2018-08-17T08:48:43.100Z,568.13
2018-08-17T08:49:43.203Z,489.38
2018-08-17T08:50:43.307Z,545.63
2018-08-17T08:51:43.420Z,523.13
2018-08-17T08:52:43.528Z,556.88
2018-08-17T08:53:43.631Z,562.50
2018-08-17T08:54:43.736Z,562.50
2018-08-17T08:55:43.872Z,562.50
2018-08-17T08:56:43.943Z,455.63
2018-08-17T08:57:44.043Z,523.13
2018-08-17T08:58:44.148Z,506.25
2018-08-17T08:59:44.256Z,455.63
2018-08-17T09:00:44.360Z,450.00
2018-08-17T09:01:44.559Z,534.38
2018-08-17T09:02:44.564Z,545.63
2018-08-17T09:03:44.661Z,506.25
2018-08-17T09:04:44.763Z,585.00
2018-08-17T09:05:44.867Z,590.63
2018-08-17T09:06:44.971Z,500.63
2018-08-17T09:07:45.074Z,523.13
2018-08-17T09:08:45.179Z,523.13
2018-08-17T09:09:45.282Z,517.50
2018-08-17T09:10:45.377Z,528.75
2018-08-17T09:11:45.477Z,579.38
2018-08-17T09:12:45.581Z,517.50
2018-08-17T09:13:45.718Z,540.00
2018-08-17T09:14:45.790Z,478.13
2018-08-17T09:15:45.894Z,489.38
2018-08-17T09:16:46.000Z,517.50
2018-08-17T09:17:46.106Z,478.13
2018-08-17T09:18:46.248Z,506.25
2018-08-17T09:19:46.310Z,500.63
2018-08-17T09:20:46.438Z,478.13
2018-08-17T09:21:46.520Z,405.00
2018-08-17T09:22:46.622Z,450.00
2018-08-17T09:23:46.732Z,444.38
2018-08-17T09:24:46.830Z,399.38
2018-08-17T09:25:46.936Z,416.25
2018-08-17T09:26:47.041Z,399.38
2018-08-17T09:27:47.168Z,438.75
2018-08-17T09:28:47.252Z,500.63
2018-08-17T09:29:47.356Z,500.63
2018-08-17T09:30:47.454Z,410.63
2018-08-17T09:31:47.575Z,517.50
2018-08-17T09:32:47.677Z,528.75
2018-08-17T09:33:47.781Z,528.75
2018-08-17T09:34:47.886Z,517.50
2018-08-17T09:35:47.989Z,495.00
2018-08-17T09:36:48.092Z,478.13
2018-08-17T09:37:48.198Z,466.88
2018-08-17T09:38:48.301Z,450.00
2018-08-17T09:39:48.403Z,433.13
2018-08-17T09:40:48.504Z,450.00
2018-08-17T09:41:48.635Z,444.38
2018-08-17T09:42:48.713Z,450.00
2018-08-17T09:43:48.816Z,444.38
2018-08-17T09:44:48.920Z,433.13
2018-08-17T09:45:49.023Z,433.13
2018-08-17T09:46:49.124Z,455.63
2018-08-17T09:47:49.231Z,444.38
2018-08-17T09:48:49.334Z,433.13
2018-08-17T09:49:49.439Z,438.75
2018-08-17T09:50:49.543Z,416.25
2018-08-17T09:51:49.644Z,421.88
2018-08-17T09:52:49.749Z,416.25
2018-08-17T09:53:49.848Z,438.75
2018-08-17T09:54:49.946Z,421.88
2018-08-17T09:55:50.050Z,421.88
2018-08-17T09:56:50.157Z,427.50
2018-08-17T09:57:50.260Z,433.13
2018-08-17T09:58:50.371Z,438.75
2018-08-17T09:59:50.473Z,444.38
2018-08-17T10:00:50.566Z,444.38
2018-08-17T10:01:50.676Z,450.00
2018-08-17T10:02:50.779Z,461.25
2018-08-17T10:03:50.960Z,455.63
2018-08-17T10:04:50.988Z,500.63
2018-08-17T10:05:51.094Z,472.50
2018-08-17T10:06:51.200Z,416.25
2018-08-17T10:07:51.306Z,376.88
2018-08-17T10:08:51.415Z,382.50
2018-08-17T10:09:51.525Z,455.63
2018-08-17T10:10:51.627Z,489.38
2018-08-17T10:11:51.731Z,511.88
2018-08-17T10:12:51.835Z,495.00
2018-08-17T10:13:51.940Z,416.25
2018-08-17T10:14:52.053Z,438.75
2018-08-17T10:15:52.178Z,421.88
2018-08-17T10:16:52.262Z,461.25
2018-08-17T10:17:52.375Z,472.50
2018-08-17T10:18:52.474Z,433.13
2018-08-17T10:19:52.586Z,433.13
2018-08-17T10:20:52.838Z,421.88
2018-08-17T10:21:53.137Z,421.88
2018-08-17T10:22:52.889Z,393.75
2018-08-17T10:23:52.990Z,399.38
2018-08-17T10:24:53.095Z,388.13
2018-08-17T10:25:53.200Z,393.75
2018-08-17T10:26:53.304Z,393.75
2018-08-17T10:27:53.407Z,376.88
2018-08-17T10:28:53.512Z,399.38
2018-08-17T10:29:53.608Z,399.38
2018-08-17T10:30:53.710Z,393.75
2018-08-17T10:31:53.813Z,365.63
2018-08-17T10:32:53.918Z,393.75
2018-08-17T10:33:54.070Z,399.38
2018-08-17T10:34:54.129Z,410.63
2018-08-17T10:35:54.235Z,438.75
2018-08-17T10:36:54.332Z,450.00
2018-08-17T10:37:54.444Z,438.75
2018-08-17T10:38:54.549Z,410.63
2018-08-17T10:39:54.654Z,388.13
2018-08-17T10:40:54.809Z,416.25
2018-08-17T10:41:54.869Z,393.75
2018-08-17T10:42:54.967Z,354.38
2018-08-17T10:43:55.072Z,376.88
2018-08-17T10:44:55.175Z,388.13
2018-08-17T10:45:55.279Z,399.38
2018-08-17T10:46:55.386Z,399.38
2018-08-17T10:47:55.486Z,410.63
2018-08-17T10:48:55.728Z,421.88
2018-08-17T10:49:55.698Z,421.88
2018-08-17T10:50:55.821Z,433.13
2018-08-17T10:51:55.923Z,399.38
2018-08-17T10:52:56.030Z,410.63
2018-08-17T10:53:56.135Z,354.38
2018-08-17T10:54:56.236Z,343.13
2018-08-17T10:55:56.342Z,360.00
2018-08-17T10:56:56.446Z,410.63
2018-08-17T10:57:56.555Z,438.75
2018-08-17T10:58:56.663Z,438.75
2018-08-17T10:59:56.760Z,416.25
2018-08-17T11:00:56.864Z,433.13
2018-08-17T11:01:56.968Z,444.38
2018-08-17T11:02:57.075Z,534.38
2018-08-17T11:03:57.182Z,444.38
2018-08-17T11:04:57.286Z,450.00
2018-08-17T11:05:57.381Z,438.75
2018-08-17T11:06:57.492Z,433.13
2018-08-17T11:07:57.599Z,433.13
2018-08-17T11:08:57.709Z,438.75
2018-08-17T11:09:57.813Z,427.50
2018-08-17T11:10:57.930Z,416.25
2018-08-17T11:11:58.020Z,421.88
2018-08-17T11:12:58.121Z,427.50
2018-08-17T11:13:58.224Z,410.63
2018-08-17T11:14:58.335Z,416.25
2018-08-17T11:15:58.440Z,416.25
2018-08-17T11:16:58.613Z,416.25
2018-08-17T11:17:58.649Z,410.63
2018-08-17T11:18:58.750Z,416.25
2018-08-17T11:19:58.865Z,410.63
2018-08-17T11:20:58.968Z,399.38
2018-08-17T11:21:59.076Z,399.38
2018-08-17T11:22:59.260Z,393.75
2018-08-17T11:23:59.301Z,399.38
2018-08-17T11:24:59.408Z,393.75
2018-08-17T11:25:59.512Z,393.75
2018-08-17T11:26:59.616Z,388.13
2018-08-17T11:27:59.720Z,393.75
2018-08-17T11:28:59.821Z,388.13
2018-08-17T11:29:59.925Z,388.13
2018-08-17T11:31:00.035Z,388.13
2018-08-17T11:32:00.145Z,388.13
2018-08-17T11:33:00.242Z,388.13
2018-08-17T11:34:00.347Z,388.13
2018-08-17T11:35:00.448Z,393.75
2018-08-17T11:36:00.563Z,382.50
2018-08-17T11:37:00.671Z,399.38
2018-08-17T11:38:00.781Z,388.13
2018-08-17T11:39:00.888Z,382.50
2018-08-17T11:40:00.992Z,388.13
2018-08-17T11:41:01.093Z,376.88
2018-08-17T11:42:01.210Z,376.88
2018-08-17T11:43:01.312Z,382.50
2018-08-17T11:44:01.414Z,376.88
2018-08-17T11:45:01.512Z,376.88
2018-08-17T11:46:01.618Z,393.75
2018-08-17T11:47:01.724Z,382.50
2018-08-17T11:48:01.827Z,461.25
2018-08-17T11:49:01.917Z,376.88
2018-08-17T11:50:02.025Z,388.13
2018-08-17T11:51:02.143Z,376.88
2018-08-17T11:52:02.247Z,382.50
2018-08-17T11:53:02.342Z,399.38
2018-08-17T11:54:02.508Z,382.50
2018-08-17T11:55:02.562Z,382.50
2018-08-17T11:56:02.665Z,382.50
2018-08-17T11:57:02.765Z,382.50
2018-08-17T11:58:02.870Z,382.50
2018-08-17T11:59:02.977Z,382.50
2018-08-17T12:00:03.091Z,382.50
2018-08-17T12:01:03.189Z,416.25
2018-08-17T12:02:03.391Z,376.88
2018-08-17T12:03:03.399Z,376.88
2018-08-17T12:04:03.507Z,376.88
2018-08-17T12:05:03.609Z,376.88
2018-08-17T12:06:03.716Z,376.88
2018-08-17T12:07:03.822Z,382.50
2018-08-17T12:08:03.993Z,376.88
2018-08-17T12:09:04.044Z,376.88
2018-08-17T12:10:04.148Z,376.88
2018-08-17T12:11:04.261Z,376.88
2018-08-17T12:12:04.368Z,376.88
2018-08-17T12:13:04.472Z,382.50
2018-08-17T12:14:04.584Z,382.50
2018-08-17T12:15:04.688Z,382.50
2018-08-17T12:16:04.797Z,382.50
2018-08-17T12:17:04.912Z,382.50
2018-08-17T12:18:05.011Z,382.50
2018-08-17T12:19:05.122Z,382.50
2018-08-17T12:20:05.228Z,393.75
2018-08-17T12:21:05.321Z,382.50
2018-08-17T12:22:05.426Z,382.50
2018-08-17T12:23:05.539Z,382.50
2018-08-17T12:24:05.643Z,382.50
2018-08-17T12:25:05.778Z,376.88
2018-08-17T12:26:05.853Z,382.50
2018-08-17T12:27:05.961Z,382.50
2018-08-17T12:28:06.070Z,382.50
2018-08-17T12:29:06.178Z,382.50
2018-08-17T12:30:06.282Z,382.50
2018-08-17T12:31:06.390Z,382.50
2018-08-17T12:32:06.528Z,410.63
2018-08-17T12:33:06.609Z,382.50
2018-08-17T12:34:06.718Z,382.50
2018-08-17T12:35:06.825Z,461.25
2018-08-17T12:36:06.929Z,388.13
2018-08-17T12:37:07.025Z,388.13
2018-08-17T12:38:07.132Z,388.13
2018-08-17T12:39:07.228Z,388.13
2018-08-17T12:40:07.351Z,388.13
2018-08-17T12:41:07.448Z,393.75
2018-08-17T12:42:07.551Z,410.63
2018-08-17T12:43:07.661Z,517.50
2018-08-17T12:45:07.880Z,405.00
2018-08-17T12:46:07.989Z,410.63